createdAt,value
2022-07-31T00:00:21.336Z,7.75
2022-07-31T00:02:48.199Z,6.75
2022-07-31T00:05:15.018Z,6.80
2022-07-31T00:07:41.905Z,6.32
2022-07-31T00:10:09.835Z,5.15
2022-07-31T00:12:36.720Z,5.18
2022-07-31T00:15:06.145Z,4.55
2022-07-31T00:17:33.649Z,4.45
2022-07-31T00:20:00.431Z,5.43
2022-07-31T00:22:27.291Z,4.68
2022-07-31T00:24:54.233Z,4.65
2022-07-31T00:27:21.098Z,4.38
2022-07-31T00:29:48.009Z,5.57
2022-07-31T00:32:14.875Z,5.18
2022-07-31T00:34:42.512Z,4.82
2022-07-31T00:37:10.053Z,4.50
2022-07-31T00:39:37.028Z,4.50
2022-07-31T00:42:04.099Z,5.07
2022-07-31T00:44:30.924Z,5.00
2022-07-31T00:46:59.042Z,4.88
2022-07-31T00:49:37.268Z,4.72
2022-07-31T00:52:05.062Z,4.90
2022-07-31T00:54:31.948Z,4.78
2022-07-31T00:56:58.834Z,5.35
2022-07-31T00:59:26.886Z,4.93
2022-07-31T01:01:54.208Z,5.03
2022-07-31T01:04:21.079Z,4.85
2022-07-31T01:06:48.104Z,5.50
2022-07-31T01:09:15.186Z,4.93
2022-07-31T01:11:54.058Z,5.30
2022-07-31T01:16:54.089Z,6.97
2022-07-31T01:19:38.074Z,5.95
2022-07-31T01:22:38.477Z,5.82
2022-07-31T01:25:30.035Z,5.95
2022-07-31T01:28:10.152Z,6.45
2022-07-31T01:31:24.243Z,6.47
2022-07-31T01:33:52.179Z,6.95
2022-07-31T01:36:25.688Z,6.70
2022-07-31T01:38:55.490Z,6.35
2022-07-31T01:41:27.004Z,7.07
2022-07-31T01:43:56.943Z,7.95
2022-07-31T01:46:26.446Z,7.78
2022-07-31T01:48:56.139Z,6.80
2022-07-31T01:51:25.657Z,8.45
2022-07-31T01:56:22.132Z,7.63
2022-07-31T01:58:50.793Z,8.05
2022-07-31T02:01:28.559Z,9.13
2022-07-31T02:04:00.716Z,7.43
2022-07-31T02:06:30.594Z,8.70
2022-07-31T02:08:59.694Z,6.32
2022-07-31T02:11:26.592Z,6.90
2022-07-31T02:13:54.440Z,6.60
2022-07-31T02:16:23.317Z,6.35
2022-07-31T02:18:59.258Z,7.47
2022-07-31T02:21:26.878Z,7.68
2022-07-31T02:23:54.157Z,8.68
2022-07-31T02:26:22.604Z,7.47
2022-07-31T02:28:50.807Z,7.60
2022-07-31T02:31:18.889Z,7.40
2022-07-31T02:33:48.904Z,7.13
2022-07-31T02:38:45.850Z,8.55
2022-07-31T02:41:14.464Z,6.25
2022-07-31T02:43:42.956Z,7.57
2022-07-31T02:46:19.163Z,6.93
2022-07-31T02:48:46.384Z,6.03
2022-07-31T02:51:14.889Z,6.73
2022-07-31T02:53:42.696Z,6.90
2022-07-31T02:56:10.198Z,7.60
2022-07-31T02:58:42.870Z,7.53
2022-07-31T03:01:18.499Z,9.50
2022-07-31T03:03:45.842Z,8.43
2022-07-31T03:06:12.933Z,8.55
2022-07-31T03:08:39.761Z,9.65
2022-07-31T03:11:07.580Z,9.35
2022-07-31T03:13:36.775Z,9.90
2022-07-31T03:16:07.229Z,11.32
2022-07-31T03:18:34.605Z,10.60
2022-07-31T03:21:01.852Z,10.27
2022-07-31T03:23:36.265Z,12.07
2022-07-31T03:26:08.449Z,11.15
2022-07-31T03:28:35.917Z,13.00
2022-07-31T03:31:03.331Z,12.45
2022-07-31T03:33:31.401Z,13.10
2022-07-31T03:35:59.045Z,12.32
2022-07-31T03:38:40.946Z,12.60
2022-07-31T03:41:31.765Z,12.90
2022-07-31T03:43:58.883Z,13.05
2022-07-31T03:46:26.065Z,12.82
2022-07-31T03:48:53.799Z,12.15
2022-07-31T03:51:24.007Z,12.95
2022-07-31T03:53:52.009Z,13.18
2022-07-31T03:56:46.432Z,12.55
2022-07-31T03:59:16.914Z,12.50
2022-07-31T04:01:58.397Z,11.82
2022-07-31T04:04:54.238Z,12.55
2022-07-31T04:07:21.704Z,12.15
2022-07-31T04:09:48.859Z,12.55
2022-07-31T04:12:16.007Z,12.38
2022-07-31T04:14:42.907Z,12.50
2022-07-31T04:17:10.391Z,12.32
2022-07-31T04:19:37.465Z,12.43
2022-07-31T04:22:05.894Z,13.07
2022-07-31T04:24:34.152Z,14.27
2022-07-31T04:27:17.649Z,13.23
2022-07-31T04:29:45.911Z,13.35
2022-07-31T04:32:12.855Z,13.07
2022-07-31T04:34:54.156Z,13.18
2022-07-31T04:37:21.272Z,13.98
2022-07-31T04:39:48.321Z,13.80
2022-07-31T04:42:15.599Z,13.80
2022-07-31T04:44:42.516Z,13.38
2022-07-31T04:47:09.324Z,13.90
2022-07-31T04:49:42.198Z,14.40
2022-07-31T04:52:11.035Z,13.18
2022-07-31T04:54:39.403Z,14.25
2022-07-31T04:57:08.447Z,14.35
2022-07-31T04:59:57.953Z,13.73
2022-07-31T05:02:22.315Z,12.98
2022-07-31T05:04:52.413Z,13.75
2022-07-31T05:07:26.577Z,13.48
2022-07-31T05:09:57.346Z,13.63
2022-07-31T05:12:24.671Z,12.90
2022-07-31T05:14:51.805Z,12.98
2022-07-31T05:17:18.860Z,13.95
2022-07-31T05:19:55.738Z,13.48
2022-07-31T05:22:41.030Z,12.93
2022-07-31T05:25:43.024Z,13.30
2022-07-31T05:28:09.950Z,13.18
2022-07-31T05:30:37.419Z,13.43
2022-07-31T05:33:05.413Z,12.55
2022-07-31T05:35:32.388Z,13.23
2022-07-31T05:37:59.552Z,12.23
2022-07-31T05:40:43.660Z,12.48
2022-07-31T05:43:29.280Z,11.40
2022-07-31T05:46:20.243Z,11.00
2022-07-31T05:48:47.174Z,11.10
2022-07-31T05:51:14.269Z,10.52
2022-07-31T05:53:44.341Z,11.80
2022-07-31T05:56:31.360Z,11.57
2022-07-31T05:58:59.883Z,10.77
2022-07-31T06:01:26.768Z,11.45
2022-07-31T06:03:53.791Z,11.55
2022-07-31T06:06:23.881Z,11.82
2022-07-31T06:08:50.908Z,10.80
2022-07-31T06:11:17.725Z,13.07
2022-07-31T06:13:44.667Z,12.68
2022-07-31T06:16:18.941Z,11.95
2022-07-31T06:18:45.838Z,14.05
2022-07-31T06:23:39.213Z,14.05
2022-07-31T06:26:20.904Z,15.05
2022-07-31T06:28:51.148Z,14.77
2022-07-31T06:31:20.443Z,15.32
2022-07-31T06:33:49.506Z,15.82
2022-07-31T06:36:18.673Z,16.35
2022-07-31T06:38:58.735Z,17.33
2022-07-31T06:41:47.609Z,16.02
2022-07-31T06:44:35.299Z,17.30
2022-07-31T06:47:31.501Z,17.27
2022-07-31T06:50:19.048Z,18.38
2022-07-31T06:52:53.532Z,19.58
2022-07-31T06:55:22.760Z,18.92
2022-07-31T06:57:50.120Z,18.67
2022-07-31T07:00:20.287Z,21.33
2022-07-31T07:02:50.577Z,22.15
2022-07-31T07:05:17.874Z,21.13
2022-07-31T07:07:47.708Z,22.55
2022-07-31T07:10:14.672Z,22.60
2022-07-31T07:13:01.708Z,23.48
2022-07-31T07:15:33.229Z,22.45
2022-07-31T07:18:00.232Z,22.58
2022-07-31T07:20:49.716Z,23.85
2022-07-31T07:23:16.861Z,23.90
2022-07-31T07:26:03.142Z,23.52
2022-07-31T07:28:31.608Z,21.88
2022-07-31T07:31:01.987Z,24.17
2022-07-31T07:33:40.133Z,23.40
2022-07-31T07:36:22.300Z,25.90
2022-07-31T07:38:55.138Z,24.00
2022-07-31T07:41:24.228Z,24.35
2022-07-31T07:43:51.753Z,22.08
2022-07-31T07:46:23.992Z,26.00
2022-07-31T07:48:54.907Z,25.27
2022-07-31T07:51:59.379Z,27.15
2022-07-31T07:54:38.454Z,26.95
2022-07-31T07:57:18.393Z,27.42
2022-07-31T07:59:54.345Z,26.73
2022-07-31T08:03:46.665Z,27.05
2022-07-31T08:05:40.268Z,26.88
2022-07-31T08:08:07.303Z,28.35
2022-07-31T08:10:41.066Z,29.67
2022-07-31T08:13:16.207Z,27.70
2022-07-31T08:16:01.580Z,28.45
2022-07-31T08:18:34.507Z,27.02
2022-07-31T08:21:01.983Z,26.35
2022-07-31T08:23:28.845Z,28.73
2022-07-31T08:25:55.790Z,29.35
2022-07-31T08:28:26.086Z,29.58
2022-07-31T08:30:54.068Z,29.15
2022-07-31T08:33:22.217Z,30.33
2022-07-31T08:35:55.932Z,30.70
2022-07-31T08:38:22.746Z,29.48
2022-07-31T08:41:08.343Z,29.65
2022-07-31T08:44:02.254Z,31.63
2022-07-31T08:46:23.050Z,29.13
2022-07-31T08:48:54.945Z,31.33
2022-07-31T08:51:24.028Z,29.05
2022-07-31T08:54:11.697Z,30.70
2022-07-31T08:56:39.328Z,32.30
2022-07-31T08:59:07.800Z,28.55
2022-07-31T09:01:36.468Z,32.57
2022-07-31T09:04:04.038Z,31.17
2022-07-31T09:06:30.947Z,31.95
2022-07-31T09:08:57.727Z,32.35
2022-07-31T09:11:24.645Z,32.10
2022-07-31T09:14:28.689Z,32.60
2022-07-31T09:16:56.698Z,31.52
2022-07-31T09:19:52.988Z,34.22
2022-07-31T09:22:27.441Z,33.42
2022-07-31T09:25:15.898Z,34.60
2022-07-31T09:27:43.436Z,33.80
2022-07-31T09:30:11.116Z,34.58
2022-07-31T09:32:57.377Z,33.25
2022-07-31T09:35:52.331Z,32.15
2022-07-31T09:41:55.709Z,29.58
2022-07-31T09:44:14.472Z,29.55
2022-07-31T09:46:43.339Z,29.67
2022-07-31T09:49:10.791Z,28.00
2022-07-31T09:51:49.723Z,29.05
2022-07-31T09:54:25.625Z,30.38
2022-07-31T09:56:56.571Z,32.83
2022-07-31T10:01:54.133Z,32.90
2022-07-31T10:04:23.596Z,34.75
2022-07-31T10:06:52.322Z,37.05
2022-07-31T10:09:20.894Z,35.80
2022-07-31T10:12:17.221Z,34.72
2022-07-31T10:14:47.014Z,37.03
2022-07-31T10:17:16.879Z,37.05
2022-07-31T10:20:06.225Z,35.88
2022-07-31T10:23:01.689Z,36.90
2022-07-31T10:25:34.574Z,38.38
2022-07-31T10:28:03.173Z,35.55
2022-07-31T10:30:30.156Z,38.58
2022-07-31T10:32:59.722Z,37.38
2022-07-31T10:35:26.985Z,38.00
2022-07-31T10:38:21.025Z,37.92
2022-07-31T10:41:03.565Z,36.95
2022-07-31T10:43:48.779Z,36.03
2022-07-31T10:46:35.885Z,34.90
2022-07-31T10:49:44.403Z,34.85
2022-07-31T10:52:37.593Z,32.55
2022-07-31T10:55:27.269Z,32.88
2022-07-31T10:58:21.125Z,29.52
2022-07-31T11:00:52.906Z,32.45
2022-07-31T11:03:49.569Z,25.83
2022-07-31T11:06:40.419Z,25.67
2022-07-31T11:09:50.296Z,26.77
2022-07-31T11:12:37.195Z,24.33
2022-07-31T11:15:27.338Z,23.90
2022-07-31T11:18:26.474Z,21.52
2022-07-31T11:21:38.193Z,20.63
2022-07-31T11:24:03.260Z,17.55
2022-07-31T11:26:40.838Z,13.15
2022-07-31T11:30:01.084Z,11.35
2022-07-31T11:32:15.278Z,11.23
2022-07-31T11:34:50.863Z,12.20
2022-07-31T11:37:23.675Z,12.18
2022-07-31T11:39:52.737Z,12.48
2022-07-31T11:42:26.463Z,13.63
2022-07-31T11:45:11.330Z,12.45
2022-07-31T11:48:11.566Z,13.05
2022-07-31T11:50:41.436Z,14.20
2022-07-31T11:53:08.302Z,13.00
2022-07-31T11:55:55.577Z,10.95
2022-07-31T11:58:25.558Z,11.73
2022-07-31T12:01:01.010Z,11.40
2022-07-31T12:03:33.174Z,11.68
2022-07-31T12:06:00.817Z,12.70
2022-07-31T12:08:29.721Z,13.02
2022-07-31T12:11:00.186Z,12.50
2022-07-31T12:13:28.834Z,12.40
2022-07-31T12:15:56.701Z,12.30
2022-07-31T12:18:24.420Z,11.65
2022-07-31T12:21:04.293Z,10.55
2022-07-31T12:23:51.310Z,11.38
2022-07-31T12:26:31.168Z,12.68
2022-07-31T12:29:06.440Z,11.95
2022-07-31T12:31:55.523Z,12.48
2022-07-31T12:34:29.518Z,11.70
2022-07-31T12:37:14.013Z,12.23
2022-07-31T12:39:54.302Z,12.77
2022-07-31T12:42:37.598Z,12.93
2022-07-31T12:45:18.462Z,12.38
2022-07-31T12:50:20.698Z,12.00
2022-07-31T12:52:47.553Z,12.75
2022-07-31T12:55:17.010Z,13.23
2022-07-31T12:57:50.997Z,11.73
2022-07-31T13:00:22.682Z,13.25
2022-07-31T13:02:54.297Z,12.73
2022-07-31T13:05:22.307Z,11.90
2022-07-31T13:07:49.448Z,11.40
2022-07-31T13:10:23.841Z,14.10
2022-07-31T13:12:52.730Z,12.27
2022-07-31T13:15:23.166Z,11.20
2022-07-31T13:17:50.846Z,9.55
2022-07-31T13:20:18.595Z,9.05
2022-07-31T13:22:45.527Z,10.05
2022-07-31T13:25:12.411Z,9.70
2022-07-31T13:27:39.553Z,9.18
2022-07-31T13:30:09.495Z,8.50
2022-07-31T13:32:36.752Z,8.65
2022-07-31T13:35:24.257Z,8.63
2022-07-31T13:37:51.077Z,8.60
2022-07-31T13:40:19.659Z,8.43
2022-07-31T13:42:46.484Z,9.10
2022-07-31T13:45:13.292Z,9.95
2022-07-31T13:47:51.723Z,10.88
2022-07-31T13:50:19.392Z,9.02
2022-07-31T13:52:46.268Z,9.48
2022-07-31T13:55:13.307Z,8.57
2022-07-31T13:57:40.118Z,8.85
2022-07-31T14:00:07.745Z,8.38
2022-07-31T14:02:34.694Z,8.35
2022-07-31T14:05:01.643Z,9.63
2022-07-31T14:07:45.426Z,9.65
2022-07-31T14:10:20.147Z,8.20
2022-07-31T14:12:47.498Z,8.98
2022-07-31T14:15:14.781Z,7.75
2022-07-31T14:17:41.657Z,7.97
2022-07-31T14:20:09.401Z,8.13
2022-07-31T14:22:36.214Z,8.82
2022-07-31T14:25:03.692Z,8.45
2022-07-31T14:27:30.761Z,8.30
2022-07-31T14:29:57.761Z,7.93
2022-07-31T14:32:25.210Z,8.85
2022-07-31T14:34:52.348Z,9.52
2022-07-31T14:37:20.544Z,9.18
2022-07-31T14:39:47.684Z,9.03
2022-07-31T14:42:14.569Z,8.82
2022-07-31T14:44:42.430Z,7.97
2022-07-31T14:47:11.211Z,8.40
2022-07-31T14:50:08.649Z,7.60
2022-07-31T14:52:26.623Z,7.18
2022-07-31T14:54:54.315Z,7.88
2022-07-31T14:57:22.288Z,9.48
2022-07-31T14:59:50.325Z,9.18
2022-07-31T15:02:22.215Z,8.85
2022-07-31T15:04:50.516Z,9.52
2022-07-31T15:07:35.343Z,10.23
2022-07-31T15:10:08.853Z,10.85
2022-07-31T15:12:36.139Z,10.57
2022-07-31T15:15:03.585Z,10.95
2022-07-31T15:17:30.917Z,10.98
2022-07-31T15:19:58.117Z,11.38
2022-07-31T15:22:25.383Z,10.68
2022-07-31T15:24:52.697Z,9.93
2022-07-31T15:27:21.739Z,10.10
2022-07-31T15:32:33.874Z,11.23
2022-07-31T15:35:01.438Z,10.88
2022-07-31T15:37:28.973Z,10.95
2022-07-31T15:40:03.104Z,10.65
2022-07-31T15:42:34.610Z,10.43
2022-07-31T15:45:01.992Z,10.48
2022-07-31T15:47:29.384Z,10.27
2022-07-31T15:49:56.735Z,9.68
2022-07-31T15:52:24.183Z,9.52
2022-07-31T15:54:52.594Z,8.85
2022-07-31T15:57:23.874Z,8.68
2022-07-31T15:59:52.258Z,9.88
2022-07-31T16:02:19.525Z,8.60
2022-07-31T16:04:53.502Z,7.40
2022-07-31T16:08:32.840Z,7.75
2022-07-31T16:10:16.193Z,9.10
2022-07-31T16:12:45.076Z,9.05
2022-07-31T16:15:12.727Z,8.73
2022-07-31T16:17:40.421Z,8.30
2022-07-31T16:20:09.145Z,7.93
2022-07-31T16:22:37.360Z,7.78
2022-07-31T16:25:05.853Z,8.43
2022-07-31T16:27:33.087Z,8.15
2022-07-31T16:30:02.044Z,8.48
2022-07-31T16:32:30.104Z,7.35
2022-07-31T16:35:01.074Z,7.95
2022-07-31T16:37:51.369Z,8.32
2022-07-31T16:40:30.861Z,9.27
2022-07-31T16:43:46.847Z,9.07
2022-07-31T16:45:50.879Z,9.10
2022-07-31T16:48:18.287Z,8.98
2022-07-31T16:50:48.261Z,9.88
2022-07-31T16:54:11.576Z,9.23
2022-07-31T16:56:08.638Z,8.88
2022-07-31T16:58:35.852Z,10.13
2022-07-31T17:01:04.174Z,10.55
2022-07-31T17:04:01.196Z,10.20
2022-07-31T17:06:19.024Z,10.20
2022-07-31T17:09:16.241Z,9.93
2022-07-31T17:11:46.002Z,9.35
2022-07-31T17:14:13.224Z,10.10
2022-07-31T17:16:46.747Z,10.70
2022-07-31T17:19:15.293Z,10.20
2022-07-31T17:21:44.489Z,10.52
2022-07-31T17:24:15.786Z,10.10
2022-07-31T17:26:43.950Z,11.25
2022-07-31T17:29:11.633Z,11.02
2022-07-31T17:31:38.943Z,11.77
2022-07-31T17:34:09.179Z,9.35
2022-07-31T17:36:36.967Z,10.35
2022-07-31T17:39:04.737Z,10.80
2022-07-31T17:41:32.072Z,11.77
2022-07-31T17:43:59.676Z,11.80
2022-07-31T17:46:29.931Z,10.93
2022-07-31T17:49:03.611Z,10.13
2022-07-31T17:51:30.921Z,11.32
2022-07-31T17:53:59.532Z,11.43
2022-07-31T17:56:27.074Z,10.52
2022-07-31T17:58:55.515Z,10.13
2022-07-31T18:01:28.421Z,9.15
2022-07-31T18:03:56.565Z,11.20
2022-07-31T18:06:24.064Z,8.63
2022-07-31T18:08:51.809Z,9.18
2022-07-31T18:11:19.536Z,9.05
2022-07-31T18:13:48.186Z,10.65
2022-07-31T18:16:19.139Z,9.60
2022-07-31T18:18:47.963Z,9.80
2022-07-31T18:21:17.621Z,10.35
2022-07-31T18:23:47.562Z,10.23
2022-07-31T18:26:15.079Z,10.00
2022-07-31T18:28:42.462Z,10.48
2022-07-31T18:31:13.952Z,9.82
2022-07-31T18:33:58.154Z,9.90
2022-07-31T18:36:26.417Z,10.43
2022-07-31T18:38:53.673Z,12.18
2022-07-31T18:41:21.186Z,9.27
2022-07-31T18:43:48.395Z,10.70
2022-07-31T18:46:15.803Z,9.88
2022-07-31T18:48:43.088Z,9.70
2022-07-31T18:51:10.468Z,9.63
2022-07-31T18:53:37.775Z,11.48
2022-07-31T18:56:05.165Z,10.85
2022-07-31T18:58:32.467Z,10.82
2022-07-31T19:00:59.779Z,10.32
2022-07-31T19:03:27.069Z,10.73
2022-07-31T19:05:54.582Z,10.75
2022-07-31T19:08:22.194Z,12.50
2022-07-31T19:10:51.906Z,10.85
2022-07-31T19:13:19.676Z,12.32
2022-07-31T19:15:52.865Z,11.40
2022-07-31T19:18:27.002Z,11.45
2022-07-31T19:21:21.339Z,9.82
2022-07-31T19:23:46.685Z,10.57
2022-07-31T19:26:14.139Z,10.82
2022-07-31T19:28:43.203Z,9.73
2022-07-31T19:31:10.711Z,10.10
2022-07-31T19:33:37.980Z,9.75
2022-07-31T19:36:05.511Z,8.95
2022-07-31T19:38:33.172Z,8.80
2022-07-31T19:41:00.649Z,9.75
2022-07-31T19:43:28.264Z,9.02
2022-07-31T19:46:10.371Z,9.30
2022-07-31T19:48:46.928Z,8.82
2022-07-31T19:51:15.920Z,10.52
2022-07-31T19:53:43.665Z,8.00
2022-07-31T19:56:11.578Z,9.32
2022-07-31T19:58:41.218Z,7.50
2022-07-31T20:01:09.654Z,7.47
2022-07-31T20:03:37.140Z,6.20
2022-07-31T20:06:04.659Z,6.70
2022-07-31T20:08:33.459Z,6.60
2022-07-31T20:11:03.657Z,6.43
2022-07-31T20:13:32.508Z,7.70
2022-07-31T20:16:00.080Z,6.47
2022-07-31T20:18:28.913Z,6.93
2022-07-31T20:23:24.513Z,7.15
2022-07-31T20:25:51.766Z,8.23
2022-07-31T20:28:19.098Z,8.70
2022-07-31T20:30:46.321Z,7.75
2022-07-31T20:33:13.630Z,8.25
2022-07-31T20:35:48.383Z,9.60
2022-07-31T20:38:23.803Z,9.52
2022-07-31T20:40:54.038Z,8.93
2022-07-31T20:43:25.320Z,9.20
2022-07-31T20:45:55.525Z,9.20
2022-07-31T20:48:24.694Z,9.00
2022-07-31T20:53:20.810Z,9.90
2022-07-31T20:55:49.931Z,10.10
2022-07-31T21:00:45.400Z,9.73
2022-07-31T21:03:12.729Z,9.57
2022-07-31T21:05:40.024Z,9.02
2022-07-31T21:08:07.330Z,9.23
2022-07-31T21:10:35.521Z,9.45
2022-07-31T21:13:02.822Z,8.85
2022-07-31T21:15:43.358Z,9.63
2022-07-31T21:18:12.888Z,9.55
2022-07-31T21:20:51.843Z,9.53
2022-07-31T21:23:21.406Z,9.52
2022-07-31T21:25:48.911Z,9.63
2022-07-31T21:28:16.304Z,9.68
2022-07-31T21:30:43.624Z,8.98
2022-07-31T21:33:10.997Z,9.05
2022-07-31T21:35:39.976Z,9.18
2022-07-31T21:38:10.472Z,9.10
2022-07-31T21:40:40.895Z,8.38
2022-07-31T21:43:08.569Z,8.23
2022-07-31T21:45:50.603Z,7.75
2022-07-31T21:48:24.762Z,6.80
2022-07-31T21:50:52.380Z,7.03
2022-07-31T21:53:19.682Z,7.35
2022-07-31T21:55:46.957Z,6.10
2022-07-31T21:58:14.247Z,5.88
2022-07-31T22:00:41.799Z,5.82
2022-07-31T22:03:09.221Z,5.93
2022-07-31T22:05:55.330Z,5.80
2022-07-31T22:08:22.778Z,6.72
2022-07-31T22:10:50.834Z,5.88
2022-07-31T22:13:19.070Z,6.28
2022-07-31T22:15:52.553Z,5.90
2022-07-31T22:18:32.648Z,5.90
2022-07-31T22:21:00.409Z,5.72
2022-07-31T22:23:28.399Z,5.80
2022-07-31T22:25:56.131Z,5.93
2022-07-31T22:28:24.214Z,5.97
2022-07-31T22:30:52.178Z,5.15
2022-07-31T22:33:19.662Z,6.45
2022-07-31T22:35:59.840Z,6.22
2022-07-31T22:38:28.777Z,5.88
2022-07-31T22:40:56.236Z,6.13
2022-07-31T22:44:13.619Z,6.55
2022-07-31T22:46:12.574Z,5.40
2022-07-31T22:48:40.689Z,5.80
2022-07-31T22:51:08.471Z,5.00
2022-07-31T22:53:36.272Z,5.75
2022-07-31T22:56:03.732Z,6.15
2022-07-31T22:58:30.948Z,6.07
2022-07-31T23:00:58.357Z,5.93
2022-07-31T23:03:25.547Z,5.53
2022-07-31T23:06:27.959Z,5.45
2022-07-31T23:08:40.087Z,5.82
2022-07-31T23:11:07.593Z,5.80
2022-07-31T23:13:34.895Z,6.10
2022-07-31T23:16:02.233Z,5.65
2022-07-31T23:18:29.516Z,6.65
2022-07-31T23:20:56.804Z,6.80
2022-07-31T23:23:24.038Z,6.30
2022-07-31T23:25:51.234Z,6.57
2022-07-31T23:28:18.464Z,6.13
2022-07-31T23:30:45.687Z,5.93
2022-07-31T23:33:16.303Z,6.68
2022-07-31T23:35:44.332Z,7.35
2022-07-31T23:38:11.741Z,7.22
2022-07-31T23:40:38.968Z,6.78
2022-07-31T23:43:06.221Z,7.55
2022-07-31T23:45:34.928Z,7.93
2022-07-31T23:48:02.453Z,8.43
2022-07-31T23:50:29.870Z,7.97
2022-07-31T23:52:57.124Z,8.00
2022-07-31T23:55:24.335Z,7.75
2022-07-31T23:57:51.534Z,9.48
